sensor_id;sensor_type;location;lat;lon;timestamp;temperature;humidity
56861;DHT22;42744;51.094;3.490;2023-02-21T00:02:38;8.30;99.90
56861;DHT22;42744;51.094;3.490;2023-02-21T00:05:23;8.20;99.90
56861;DHT22;42744;51.094;3.490;2023-02-21T00:08:07;8.30;99.90
56861;DHT22;42744;51.094;3.490;2023-02-21T00:10:52;8.30;99.90
56861;DHT22;42744;51.094;3.490;2023-02-21T00:13:38;8.30;99.90
56861;DHT22;42744;51.094;3.490;2023-02-21T00:16:23;8.30;99.90
56861;DHT22;42744;51.094;3.490;2023-02-21T00:19:07;8.30;99.90
56861;DHT22;42744;51.094;3.490;2023-02-21T00:21:52;8.30;99.90
56861;DHT22;42744;51.094;3.490;2023-02-21T00:24:37;8.30;99.90
56861;DHT22;42744;51.094;3.490;2023-02-21T00:27:23;8.30;99.90
56861;DHT22;42744;51.094;3.490;2023-02-21T00:30:09;8.30;99.90
56861;DHT22;42744;51.094;3.490;2023-02-21T00:32:56;8.30;99.90
56861;DHT22;42744;51.094;3.490;2023-02-21T00:35:41;8.30;99.90
56861;DHT22;42744;51.094;3.490;2023-02-21T00:38:26;8.20;99.90
56861;DHT22;42744;51.094;3.490;2023-02-21T00:41:11;8.30;99.90
56861;DHT22;42744;51.094;3.490;2023-02-21T00:43:56;8.30;99.90
56861;DHT22;42744;51.094;3.490;2023-02-21T00:46:41;8.20;99.90
56861;DHT22;42744;51.094;3.490;2023-02-21T00:49:26;8.20;99.90
56861;DHT22;42744;51.094;3.490;2023-02-21T00:52:10;8.30;99.90
56861;DHT22;42744;51.094;3.490;2023-02-21T00:54:55;8.20;99.90
56861;DHT22;42744;51.094;3.490;2023-02-21T00:57:40;8.20;99.90
56861;DHT22;42744;51.094;3.490;2023-02-21T01:00:25;8.20;99.90
56861;DHT22;42744;51.094;3.490;2023-02-21T01:03:10;8.20;99.90
56861;DHT22;42744;51.094;3.490;2023-02-21T01:05:55;8.20;99.90
56861;DHT22;42744;51.094;3.490;2023-02-21T01:08:45;8.20;99.90
56861;DHT22;42744;51.094;3.490;2023-02-21T01:11:31;8.20;99.90
56861;DHT22;42744;51.094;3.490;2023-02-21T01:14:16;8.20;99.90
56861;DHT22;42744;51.094;3.490;2023-02-21T01:17:01;8.10;99.90
56861;DHT22;42744;51.094;3.490;2023-02-21T01:19:46;8.10;99.90
56861;DHT22;42744;51.094;3.490;2023-02-21T01:22:33;8.10;99.90
56861;DHT22;42744;51.094;3.490;2023-02-21T01:25:19;8.10;99.90
56861;DHT22;42744;51.094;3.490;2023-02-21T01:28:04;8.10;99.90
56861;DHT22;42744;51.094;3.490;2023-02-21T01:30:49;8.10;99.90
56861;DHT22;42744;51.094;3.490;2023-02-21T01:33:38;8.10;99.90
56861;DHT22;42744;51.094;3.490;2023-02-21T01:36:23;8.10;99.90
56861;DHT22;42744;51.094;3.490;2023-02-21T01:39:09;8.10;99.90
56861;DHT22;42744;51.094;3.490;2023-02-21T01:41:54;8.10;99.90
56861;DHT22;42744;51.094;3.490;2023-02-21T01:44:41;8.10;99.90
56861;DHT22;42744;51.094;3.490;2023-02-21T01:47:27;8.00;99.90
56861;DHT22;42744;51.094;3.490;2023-02-21T01:50:22;8.00;99.90
56861;DHT22;42744;51.094;3.490;2023-02-21T01:53:13;8.00;99.90
56861;DHT22;42744;51.094;3.490;2023-02-21T01:55:59;8.10;99.90
56861;DHT22;42744;51.094;3.490;2023-02-21T01:58:47;8.00;99.90
56861;DHT22;42744;51.094;3.490;2023-02-21T02:01:45;8.10;99.90
56861;DHT22;42744;51.094;3.490;2023-02-21T02:04:32;8.00;99.90
56861;DHT22;42744;51.094;3.490;2023-02-21T02:07:18;8.00;99.90
56861;DHT22;42744;51.094;3.490;2023-02-21T02:10:04;8.00;99.90
56861;DHT22;42744;51.094;3.490;2023-02-21T02:13:07;8.00;99.90
56861;DHT22;42744;51.094;3.490;2023-02-21T02:15:40;8.00;99.90
56861;DHT22;42744;51.094;3.490;2023-02-21T02:45:42;7.90;99.90
56861;DHT22;42744;51.094;3.490;2023-02-21T02:48:25;7.90;99.90
56861;DHT22;42744;51.094;3.490;2023-02-21T02:50:55;7.90;99.90
56861;DHT22;42744;51.094;3.490;2023-02-21T02:53:25;7.90;99.90
56861;DHT22;42744;51.094;3.490;2023-02-21T02:55:59;8.00;99.90
56861;DHT22;42744;51.094;3.490;2023-02-21T02:58:31;7.90;99.90
56861;DHT22;42744;51.094;3.490;2023-02-21T03:10:47;7.90;99.90
56861;DHT22;42744;51.094;3.490;2023-02-21T03:15:48;7.90;99.90
56861;DHT22;42744;51.094;3.490;2023-02-21T03:19:17;7.90;99.90
56861;DHT22;42744;51.094;3.490;2023-02-21T03:21:20;7.90;99.90
56861;DHT22;42744;51.094;3.490;2023-02-21T03:23:50;7.90;99.90
56861;DHT22;42744;51.094;3.490;2023-02-21T03:26:18;7.90;99.90
56861;DHT22;42744;51.094;3.490;2023-02-21T03:28:45;7.90;99.90
56861;DHT22;42744;51.094;3.490;2023-02-21T03:31:15;7.90;99.90
56861;DHT22;42744;51.094;3.490;2023-02-21T03:33:42;7.90;99.90
56861;DHT22;42744;51.094;3.490;2023-02-21T03:36:09;7.90;99.90
56861;DHT22;42744;51.094;3.490;2023-02-21T03:38:39;7.90;99.90
56861;DHT22;42744;51.094;3.490;2023-02-21T03:41:06;7.90;99.90
56861;DHT22;42744;51.094;3.490;2023-02-21T03:43:33;7.90;99.90
56861;DHT22;42744;51.094;3.490;2023-02-21T03:46:01;7.90;99.90
56861;DHT22;42744;51.094;3.490;2023-02-21T03:48:27;7.90;99.90
56861;DHT22;42744;51.094;3.490;2023-02-21T03:50:53;7.90;99.90
56861;DHT22;42744;51.094;3.490;2023-02-21T03:53:20;7.90;99.90
56861;DHT22;42744;51.094;3.490;2023-02-21T03:55:46;7.90;99.90
56861;DHT22;42744;51.094;3.490;2023-02-21T03:58:13;7.90;99.90
56861;DHT22;42744;51.094;3.490;2023-02-21T04:00:39;7.90;99.90
56861;DHT22;42744;51.094;3.490;2023-02-21T04:03:06;7.90;99.90
56861;DHT22;42744;51.094;3.490;2023-02-21T04:05:32;7.90;99.90
56861;DHT22;42744;51.094;3.490;2023-02-21T04:07:58;7.90;99.90
56861;DHT22;42744;51.094;3.490;2023-02-21T04:10:25;7.90;99.90
56861;DHT22;42744;51.094;3.490;2023-02-21T04:12:52;7.90;99.90
56861;DHT22;42744;51.094;3.490;2023-02-21T04:15:19;7.90;99.90
56861;DHT22;42744;51.094;3.490;2023-02-21T04:17:45;7.90;99.90
56861;DHT22;42744;51.094;3.490;2023-02-21T04:20:13;7.90;99.90
56861;DHT22;42744;51.094;3.490;2023-02-21T04:22:40;7.90;99.90
56861;DHT22;42744;51.094;3.490;2023-02-21T04:25:07;7.90;99.90
56861;DHT22;42744;51.094;3.490;2023-02-21T04:27:35;7.90;99.90
56861;DHT22;42744;51.094;3.490;2023-02-21T04:30:01;7.90;99.90
56861;DHT22;42744;51.094;3.490;2023-02-21T04:32:27;7.90;99.90
56861;DHT22;42744;51.094;3.490;2023-02-21T04:34:54;7.90;99.90
56861;DHT22;42744;51.094;3.490;2023-02-21T04:37:20;8.00;99.90
56861;DHT22;42744;51.094;3.490;2023-02-21T04:39:46;8.00;99.90
56861;DHT22;42744;51.094;3.490;2023-02-21T04:42:15;8.00;99.90
56861;DHT22;42744;51.094;3.490;2023-02-21T04:44:45;8.00;99.90
56861;DHT22;42744;51.094;3.490;2023-02-21T04:47:11;7.90;99.90
56861;DHT22;42744;51.094;3.490;2023-02-21T04:49:37;7.90;99.90
56861;DHT22;42744;51.094;3.490;2023-02-21T04:52:03;7.90;99.90
56861;DHT22;42744;51.094;3.490;2023-02-21T04:54:30;7.90;99.90
56861;DHT22;42744;51.094;3.490;2023-02-21T04:56:55;7.90;99.90
56861;DHT22;42744;51.094;3.490;2023-02-21T04:59:21;7.90;99.90
56861;DHT22;42744;51.094;3.490;2023-02-21T05:01:48;7.90;99.90
56861;DHT22;42744;51.094;3.490;2023-02-21T05:04:14;7.90;99.90
56861;DHT22;42744;51.094;3.490;2023-02-21T05:06:40;7.90;99.90
56861;DHT22;42744;51.094;3.490;2023-02-21T05:09:06;7.90;99.90
56861;DHT22;42744;51.094;3.490;2023-02-21T05:11:33;7.90;99.90
56861;DHT22;42744;51.094;3.490;2023-02-21T05:14:00;7.90;99.90
56861;DHT22;42744;51.094;3.490;2023-02-21T05:16:26;7.90;99.90
56861;DHT22;42744;51.094;3.490;2023-02-21T05:18:52;7.90;99.90
56861;DHT22;42744;51.094;3.490;2023-02-21T05:21:18;7.90;99.90
56861;DHT22;42744;51.094;3.490;2023-02-21T05:23:45;7.90;99.90
56861;DHT22;42744;51.094;3.490;2023-02-21T05:26:23;7.90;99.90
56861;DHT22;42744;51.094;3.490;2023-02-21T05:28:49;7.90;99.90
56861;DHT22;42744;51.094;3.490;2023-02-21T05:31:16;7.80;99.90
56861;DHT22;42744;51.094;3.490;2023-02-21T05:33:42;7.90;99.90
56861;DHT22;42744;51.094;3.490;2023-02-21T05:36:08;7.80;99.90
56861;DHT22;42744;51.094;3.490;2023-02-21T05:38:43;7.90;99.90
56861;DHT22;42744;51.094;3.490;2023-02-21T05:41:10;7.80;99.90
56861;DHT22;42744;51.094;3.490;2023-02-21T05:43:36;7.80;99.90
56861;DHT22;42744;51.094;3.490;2023-02-21T05:46:05;7.80;99.90
56861;DHT22;42744;51.094;3.490;2023-02-21T05:48:31;7.80;99.90
56861;DHT22;42744;51.094;3.490;2023-02-21T05:50:57;7.80;99.90
56861;DHT22;42744;51.094;3.490;2023-02-21T05:53:25;7.80;99.90
56861;DHT22;42744;51.094;3.490;2023-02-21T05:55:52;7.80;99.90
56861;DHT22;42744;51.094;3.490;2023-02-21T05:58:18;7.80;99.90
56861;DHT22;42744;51.094;3.490;2023-02-21T06:00:44;7.80;99.90
56861;DHT22;42744;51.094;3.490;2023-02-21T06:03:11;7.80;99.90
56861;DHT22;42744;51.094;3.490;2023-02-21T06:05:37;7.80;99.90
56861;DHT22;42744;51.094;3.490;2023-02-21T06:08:03;7.80;99.90
56861;DHT22;42744;51.094;3.490;2023-02-21T06:10:29;7.80;99.90
56861;DHT22;42744;51.094;3.490;2023-02-21T06:12:55;7.80;99.90
56861;DHT22;42744;51.094;3.490;2023-02-21T06:15:21;7.80;99.90
56861;DHT22;42744;51.094;3.490;2023-02-21T06:17:48;7.80;99.90
56861;DHT22;42744;51.094;3.490;2023-02-21T06:20:14;7.80;99.90
56861;DHT22;42744;51.094;3.490;2023-02-21T06:22:42;7.80;99.90
56861;DHT22;42744;51.094;3.490;2023-02-21T06:25:09;7.80;99.90
56861;DHT22;42744;51.094;3.490;2023-02-21T06:27:35;7.80;99.90
56861;DHT22;42744;51.094;3.490;2023-02-21T06:30:02;7.80;99.90
56861;DHT22;42744;51.094;3.490;2023-02-21T06:32:29;7.80;99.90
56861;DHT22;42744;51.094;3.490;2023-02-21T06:34:55;7.80;99.90
56861;DHT22;42744;51.094;3.490;2023-02-21T06:37:21;7.80;99.90
56861;DHT22;42744;51.094;3.490;2023-02-21T06:39:47;7.80;99.90
56861;DHT22;42744;51.094;3.490;2023-02-21T06:42:14;7.80;99.90
56861;DHT22;42744;51.094;3.490;2023-02-21T06:44:48;7.80;99.90
56861;DHT22;42744;51.094;3.490;2023-02-21T06:47:15;7.80;99.90
56861;DHT22;42744;51.094;3.490;2023-02-21T06:49:42;7.80;99.90
56861;DHT22;42744;51.094;3.490;2023-02-21T06:52:08;7.80;99.90
56861;DHT22;42744;51.094;3.490;2023-02-21T06:54:35;7.70;99.90
56861;DHT22;42744;51.094;3.490;2023-02-21T06:57:01;7.80;99.90
56861;DHT22;42744;51.094;3.490;2023-02-21T06:59:28;7.70;99.90
56861;DHT22;42744;51.094;3.490;2023-02-21T07:01:55;7.70;99.90
56861;DHT22;42744;51.094;3.490;2023-02-21T07:04:21;7.70;99.90
56861;DHT22;42744;51.094;3.490;2023-02-21T07:06:47;7.70;99.90
56861;DHT22;42744;51.094;3.490;2023-02-21T07:09:14;7.80;99.90
56861;DHT22;42744;51.094;3.490;2023-02-21T07:11:40;7.80;99.90
56861;DHT22;42744;51.094;3.490;2023-02-21T07:14:06;7.70;99.90
56861;DHT22;42744;51.094;3.490;2023-02-21T07:16:32;7.80;99.90
56861;DHT22;42744;51.094;3.490;2023-02-21T07:18:58;7.80;99.90
56861;DHT22;42744;51.094;3.490;2023-02-21T07:21:26;7.70;99.90
56861;DHT22;42744;51.094;3.490;2023-02-21T07:23:52;7.70;99.90
56861;DHT22;42744;51.094;3.490;2023-02-21T07:26:19;7.80;99.90
56861;DHT22;42744;51.094;3.490;2023-02-21T07:28:47;7.80;99.90
56861;DHT22;42744;51.094;3.490;2023-02-21T07:31:13;7.80;99.90
56861;DHT22;42744;51.094;3.490;2023-02-21T07:33:39;7.80;99.90
56861;DHT22;42744;51.094;3.490;2023-02-21T07:36:06;7.80;99.90
56861;DHT22;42744;51.094;3.490;2023-02-21T07:38:32;7.80;99.90
56861;DHT22;42744;51.094;3.490;2023-02-21T07:41:00;7.80;99.90
56861;DHT22;42744;51.094;3.490;2023-02-21T07:43:27;7.80;99.90
56861;DHT22;42744;51.094;3.490;2023-02-21T07:45:54;7.80;99.90
56861;DHT22;42744;51.094;3.490;2023-02-21T07:48:21;7.80;99.90
56861;DHT22;42744;51.094;3.490;2023-02-21T07:50:47;7.80;99.90
56861;DHT22;42744;51.094;3.490;2023-02-21T07:53:15;7.80;99.90
56861;DHT22;42744;51.094;3.490;2023-02-21T07:55:41;7.80;99.90
56861;DHT22;42744;51.094;3.490;2023-02-21T07:58:07;7.80;99.90
56861;DHT22;42744;51.094;3.490;2023-02-21T08:00:34;7.80;99.90
56861;DHT22;42744;51.094;3.490;2023-02-21T08:03:00;7.80;99.90
56861;DHT22;42744;51.094;3.490;2023-02-21T08:05:26;7.80;99.90
56861;DHT22;42744;51.094;3.490;2023-02-21T08:07:52;7.80;99.90
56861;DHT22;42744;51.094;3.490;2023-02-21T08:10:24;7.90;99.90
56861;DHT22;42744;51.094;3.490;2023-02-21T08:12:50;7.90;99.90
56861;DHT22;42744;51.094;3.490;2023-02-21T08:15:17;7.90;99.90
56861;DHT22;42744;51.094;3.490;2023-02-21T08:17:47;7.90;99.90
56861;DHT22;42744;51.094;3.490;2023-02-21T08:20:14;7.90;99.90
56861;DHT22;42744;51.094;3.490;2023-02-21T08:22:40;7.90;99.90
56861;DHT22;42744;51.094;3.490;2023-02-21T08:25:11;7.90;99.90
56861;DHT22;42744;51.094;3.490;2023-02-21T08:27:39;7.90;99.90
56861;DHT22;42744;51.094;3.490;2023-02-21T08:30:07;8.00;99.90
56861;DHT22;42744;51.094;3.490;2023-02-21T08:32:34;7.90;99.90
56861;DHT22;42744;51.094;3.490;2023-02-21T08:35:00;7.90;99.90
56861;DHT22;42744;51.094;3.490;2023-02-21T08:37:28;7.90;99.90
56861;DHT22;42744;51.094;3.490;2023-02-21T08:39:58;8.00;99.90
56861;DHT22;42744;51.094;3.490;2023-02-21T08:42:25;8.00;99.90
56861;DHT22;42744;51.094;3.490;2023-02-21T08:44:51;8.00;99.90
56861;DHT22;42744;51.094;3.490;2023-02-21T08:47:17;8.00;99.90
56861;DHT22;42744;51.094;3.490;2023-02-21T08:49:47;8.00;99.90
56861;DHT22;42744;51.094;3.490;2023-02-21T08:52:15;7.90;99.90
56861;DHT22;42744;51.094;3.490;2023-02-21T08:54:42;8.00;99.90
56861;DHT22;42744;51.094;3.490;2023-02-21T08:57:08;8.00;99.90
56861;DHT22;42744;51.094;3.490;2023-02-21T08:59:34;8.00;99.90
56861;DHT22;42744;51.094;3.490;2023-02-21T09:02:02;7.90;99.90
56861;DHT22;42744;51.094;3.490;2023-02-21T09:04:28;8.00;99.90
56861;DHT22;42744;51.094;3.490;2023-02-21T09:06:55;8.00;99.90
56861;DHT22;42744;51.094;3.490;2023-02-21T09:09:22;8.00;99.90
56861;DHT22;42744;51.094;3.490;2023-02-21T09:11:48;8.00;99.90
56861;DHT22;42744;51.094;3.490;2023-02-21T09:14:15;8.00;99.90
56861;DHT22;42744;51.094;3.490;2023-02-21T09:16:41;8.00;99.90
56861;DHT22;42744;51.094;3.490;2023-02-21T09:19:08;8.00;99.90
56861;DHT22;42744;51.094;3.490;2023-02-21T09:21:35;8.10;99.90
56861;DHT22;42744;51.094;3.490;2023-02-21T09:24:01;8.10;99.90
56861;DHT22;42744;51.094;3.490;2023-02-21T09:26:28;8.10;99.90
56861;DHT22;42744;51.094;3.490;2023-02-21T09:28:57;8.10;99.90
56861;DHT22;42744;51.094;3.490;2023-02-21T09:31:24;8.10;99.90
56861;DHT22;42744;51.094;3.490;2023-02-21T09:33:50;8.20;99.90
56861;DHT22;42744;51.094;3.490;2023-02-21T09:36:16;8.20;99.90
56861;DHT22;42744;51.094;3.490;2023-02-21T09:38:49;8.20;99.90
56861;DHT22;42744;51.094;3.490;2023-02-21T09:41:16;8.20;99.90
56861;DHT22;42744;51.094;3.490;2023-02-21T09:43:49;8.30;99.90
56861;DHT22;42744;51.094;3.490;2023-02-21T09:49:01;8.30;99.90
56861;DHT22;42744;51.094;3.490;2023-02-21T09:51:30;8.30;99.90
56861;DHT22;42744;51.094;3.490;2023-02-21T09:53:58;8.40;99.90
56861;DHT22;42744;51.094;3.490;2023-02-21T09:56:32;8.40;99.90
56861;DHT22;42744;51.094;3.490;2023-02-21T09:58:59;8.30;99.90
56861;DHT22;42744;51.094;3.490;2023-02-21T10:07:38;8.50;99.90
56861;DHT22;42744;51.094;3.490;2023-02-21T10:10:27;8.50;99.90
56861;DHT22;42744;51.094;3.490;2023-02-21T10:13:02;8.50;99.90
56861;DHT22;42744;51.094;3.490;2023-02-21T10:20:56;8.60;99.90
56861;DHT22;42744;51.094;3.490;2023-02-21T10:23:34;8.60;99.90
56861;DHT22;42744;51.094;3.490;2023-02-21T10:26:09;8.70;99.90
56861;DHT22;42744;51.094;3.490;2023-02-21T10:28:37;8.70;99.90
56861;DHT22;42744;51.094;3.490;2023-02-21T10:31:11;8.70;99.90
56861;DHT22;42744;51.094;3.490;2023-02-21T10:33:39;8.70;99.90
56861;DHT22;42744;51.094;3.490;2023-02-21T10:36:11;8.80;99.90
56861;DHT22;42744;51.094;3.490;2023-02-21T10:38:40;8.80;99.90
56861;DHT22;42744;51.094;3.490;2023-02-21T10:41:09;8.80;99.90
56861;DHT22;42744;51.094;3.490;2023-02-21T10:43:40;8.90;99.90
56861;DHT22;42744;51.094;3.490;2023-02-21T10:46:27;8.90;99.90
56861;DHT22;42744;51.094;3.490;2023-02-21T10:49:16;8.90;99.90
56861;DHT22;42744;51.094;3.490;2023-02-21T10:51:44;8.90;99.90
56861;DHT22;42744;51.094;3.490;2023-02-21T10:54:19;8.90;99.90
56861;DHT22;42744;51.094;3.490;2023-02-21T10:56:47;8.90;99.90
56861;DHT22;42744;51.094;3.490;2023-02-21T10:59:27;9.00;99.90
56861;DHT22;42744;51.094;3.490;2023-02-21T11:01:54;9.00;99.90
56861;DHT22;42744;51.094;3.490;2023-02-21T11:07:02;9.00;99.90
56861;DHT22;42744;51.094;3.490;2023-02-21T11:09:34;9.00;99.90
56861;DHT22;42744;51.094;3.490;2023-02-21T11:14:36;9.10;99.90
56861;DHT22;42744;51.094;3.490;2023-02-21T11:19:56;9.10;99.90
56861;DHT22;42744;51.094;3.490;2023-02-21T11:22:40;9.10;99.90
56861;DHT22;42744;51.094;3.490;2023-02-21T11:25:25;9.10;99.90
56861;DHT22;42744;51.094;3.490;2023-02-21T11:33:11;9.20;99.90
56861;DHT22;42744;51.094;3.490;2023-02-21T11:35:49;9.30;99.90
56861;DHT22;42744;51.094;3.490;2023-02-21T11:38:35;9.30;99.90
56861;DHT22;42744;51.094;3.490;2023-02-21T11:41:14;9.30;99.90
56861;DHT22;42744;51.094;3.490;2023-02-21T11:44:00;9.30;99.90
56861;DHT22;42744;51.094;3.490;2023-02-21T11:51:48;9.40;99.90
56861;DHT22;42744;51.094;3.490;2023-02-21T11:54:15;9.40;99.90
56861;DHT22;42744;51.094;3.490;2023-02-21T11:57:07;9.40;99.90
56861;DHT22;42744;51.094;3.490;2023-02-21T11:59:42;9.40;99.90
56861;DHT22;42744;51.094;3.490;2023-02-21T12:05:16;9.50;99.90
56861;DHT22;42744;51.094;3.490;2023-02-21T12:10:43;9.60;99.90
56861;DHT22;42744;51.094;3.490;2023-02-21T12:19:48;9.50;99.90
56861;DHT22;42744;51.094;3.490;2023-02-21T12:30:57;9.80;99.90
56861;DHT22;42744;51.094;3.490;2023-02-21T12:42:12;9.70;99.90
56861;DHT22;42744;51.094;3.490;2023-02-21T12:47:35;9.80;99.90
56861;DHT22;42744;51.094;3.490;2023-02-21T12:50:15;9.80;99.90
56861;DHT22;42744;51.094;3.490;2023-02-21T12:53:11;9.80;99.90
56861;DHT22;42744;51.094;3.490;2023-02-21T12:55:58;9.70;99.90
56861;DHT22;42744;51.094;3.490;2023-02-21T12:58:43;9.70;99.90
56861;DHT22;42744;51.094;3.490;2023-02-21T13:01:22;9.70;99.90
56861;DHT22;42744;51.094;3.490;2023-02-21T13:07:01;9.70;99.90
56861;DHT22;42744;51.094;3.490;2023-02-21T13:09:55;9.70;99.90
56861;DHT22;42744;51.094;3.490;2023-02-21T13:12:36;9.60;99.90
56861;DHT22;42744;51.094;3.490;2023-02-21T13:17:37;9.40;99.90
56861;DHT22;42744;51.094;3.490;2023-02-21T13:20:08;9.50;99.90
56861;DHT22;42744;51.094;3.490;2023-02-21T13:22:53;9.50;99.90
56861;DHT22;42744;51.094;3.490;2023-02-21T13:25:46;9.40;99.90
56861;DHT22;42744;51.094;3.490;2023-02-21T13:28:21;9.50;99.90
56861;DHT22;42744;51.094;3.490;2023-02-21T13:30:57;9.50;99.90
56861;DHT22;42744;51.094;3.490;2023-02-21T13:33:42;9.50;99.90
56861;DHT22;42744;51.094;3.490;2023-02-21T13:36:48;9.50;99.90
56861;DHT22;42744;51.094;3.490;2023-02-21T13:39:20;9.60;99.90
56861;DHT22;42744;51.094;3.490;2023-02-21T13:41:53;9.60;99.90
56861;DHT22;42744;51.094;3.490;2023-02-21T13:47:06;9.60;99.90
56861;DHT22;42744;51.094;3.490;2023-02-21T14:08:30;9.70;99.90
56861;DHT22;42744;51.094;3.490;2023-02-21T14:11:00;9.60;99.90
56861;DHT22;42744;51.094;3.490;2023-02-21T14:16:36;9.60;99.90
56861;DHT22;42744;51.094;3.490;2023-02-21T14:21:48;9.50;99.90
56861;DHT22;42744;51.094;3.490;2023-02-21T14:24:20;9.50;99.90
56861;DHT22;42744;51.094;3.490;2023-02-21T14:26:55;9.50;99.90
56861;DHT22;42744;51.094;3.490;2023-02-21T14:32:45;9.50;99.90
56861;DHT22;42744;51.094;3.490;2023-02-21T14:38:03;9.50;99.90
56861;DHT22;42744;51.094;3.490;2023-02-21T15:00:16;9.40;99.90
56861;DHT22;42744;51.094;3.490;2023-02-21T15:05:42;9.50;99.90
56861;DHT22;42744;51.094;3.490;2023-02-21T15:08:24;9.40;99.90
56861;DHT22;42744;51.094;3.490;2023-02-21T15:10:53;9.40;99.90
56861;DHT22;42744;51.094;3.490;2023-02-21T15:13:30;9.30;99.90
56861;DHT22;42744;51.094;3.490;2023-02-21T15:16:00;9.30;99.90
56861;DHT22;42744;51.094;3.490;2023-02-21T15:18:30;9.30;99.90
56861;DHT22;42744;51.094;3.490;2023-02-21T15:21:18;9.20;99.90
56861;DHT22;42744;51.094;3.490;2023-02-21T15:23:47;9.30;99.90
56861;DHT22;42744;51.094;3.490;2023-02-21T15:26:25;9.20;99.90
56861;DHT22;42744;51.094;3.490;2023-02-21T15:29:10;9.20;99.90
56861;DHT22;42744;51.094;3.490;2023-02-21T15:31:48;9.10;99.90
56861;DHT22;42744;51.094;3.490;2023-02-21T15:34:25;9.20;99.90
56861;DHT22;42744;51.094;3.490;2023-02-21T15:37:07;9.20;99.90
56861;DHT22;42744;51.094;3.490;2023-02-21T15:39:40;9.20;99.90
56861;DHT22;42744;51.094;3.490;2023-02-21T15:42:08;9.20;99.90
56861;DHT22;42744;51.094;3.490;2023-02-21T15:44:45;9.30;99.90
56861;DHT22;42744;51.094;3.490;2023-02-21T15:47:20;9.20;99.90
56861;DHT22;42744;51.094;3.490;2023-02-21T15:50:12;9.10;99.90
56861;DHT22;42744;51.094;3.490;2023-02-21T15:52:44;9.10;99.90
56861;DHT22;42744;51.094;3.490;2023-02-21T15:55:29;9.10;99.90
56861;DHT22;42744;51.094;3.490;2023-02-21T15:58:02;9.10;99.90
56861;DHT22;42744;51.094;3.490;2023-02-21T16:00:38;9.10;99.90
56861;DHT22;42744;51.094;3.490;2023-02-21T16:03:30;9.00;99.90
56861;DHT22;42744;51.094;3.490;2023-02-21T16:17:33;9.00;99.90
56861;DHT22;42744;51.094;3.490;2023-02-21T16:20:12;9.00;99.90
56861;DHT22;42744;51.094;3.490;2023-02-21T16:22:40;9.10;99.90
56861;DHT22;42744;51.094;3.490;2023-02-21T16:27:35;9.10;99.90
56861;DHT22;42744;51.094;3.490;2023-02-21T16:30:02;9.00;99.90
56861;DHT22;42744;51.094;3.490;2023-02-21T16:32:30;9.00;99.90
56861;DHT22;42744;51.094;3.490;2023-02-21T16:34:57;9.00;99.90
56861;DHT22;42744;51.094;3.490;2023-02-21T16:37:23;9.00;99.90
56861;DHT22;42744;51.094;3.490;2023-02-21T16:39:50;8.90;99.90
56861;DHT22;42744;51.094;3.490;2023-02-21T16:42:17;8.90;99.90
56861;DHT22;42744;51.094;3.490;2023-02-21T16:44:45;8.90;99.90
56861;DHT22;42744;51.094;3.490;2023-02-21T16:47:16;8.90;99.90
56861;DHT22;42744;51.094;3.490;2023-02-21T16:49:43;8.80;99.90
56861;DHT22;42744;51.094;3.490;2023-02-21T16:52:16;8.80;99.90
56861;DHT22;42744;51.094;3.490;2023-02-21T16:54:43;8.80;99.90
56861;DHT22;42744;51.094;3.490;2023-02-21T16:57:09;8.80;99.90
56861;DHT22;42744;51.094;3.490;2023-02-21T16:59:36;8.70;99.90
56861;DHT22;42744;51.094;3.490;2023-02-21T17:02:07;8.60;99.90
56861;DHT22;42744;51.094;3.490;2023-02-21T17:04:36;8.60;99.90
56861;DHT22;42744;51.094;3.490;2023-02-21T17:07:04;8.60;99.90
56861;DHT22;42744;51.094;3.490;2023-02-21T17:09:34;8.50;99.90
56861;DHT22;42744;51.094;3.490;2023-02-21T17:12:05;8.50;99.90
56861;DHT22;42744;51.094;3.490;2023-02-21T17:14:32;8.40;99.90
56861;DHT22;42744;51.094;3.490;2023-02-21T17:16:58;8.50;99.90
56861;DHT22;42744;51.094;3.490;2023-02-21T17:19:25;8.40;99.90
56861;DHT22;42744;51.094;3.490;2023-02-21T17:21:51;8.40;99.90
56861;DHT22;42744;51.094;3.490;2023-02-21T17:24:18;8.40;99.90
56861;DHT22;42744;51.094;3.490;2023-02-21T17:26:44;8.30;99.90
56861;DHT22;42744;51.094;3.490;2023-02-21T17:29:10;8.30;99.90
56861;DHT22;42744;51.094;3.490;2023-02-21T17:31:36;8.30;99.90
56861;DHT22;42744;51.094;3.490;2023-02-21T17:34:03;8.30;99.90
56861;DHT22;42744;51.094;3.490;2023-02-21T17:36:29;8.30;99.90
56861;DHT22;42744;51.094;3.490;2023-02-21T17:38:56;8.20;99.90
56861;DHT22;42744;51.094;3.490;2023-02-21T17:41:22;8.20;99.90
56861;DHT22;42744;51.094;3.490;2023-02-21T17:43:49;8.20;99.90
56861;DHT22;42744;51.094;3.490;2023-02-21T17:46:17;8.20;99.90
56861;DHT22;42744;51.094;3.490;2023-02-21T17:48:44;8.10;99.90
56861;DHT22;42744;51.094;3.490;2023-02-21T17:51:20;8.10;99.90
56861;DHT22;42744;51.094;3.490;2023-02-21T17:53:47;8.10;99.90
56861;DHT22;42744;51.094;3.490;2023-02-21T17:56:19;8.00;99.90
56861;DHT22;42744;51.094;3.490;2023-02-21T17:58:45;8.00;99.90
56861;DHT22;42744;51.094;3.490;2023-02-21T18:01:17;8.00;99.90
56861;DHT22;42744;51.094;3.490;2023-02-21T18:03:45;8.00;99.90
56861;DHT22;42744;51.094;3.490;2023-02-21T18:06:11;7.90;99.90
56861;DHT22;42744;51.094;3.490;2023-02-21T18:08:37;7.80;99.90
56861;DHT22;42744;51.094;3.490;2023-02-21T18:11:03;7.80;99.90
56861;DHT22;42744;51.094;3.490;2023-02-21T18:13:29;7.80;99.90
56861;DHT22;42744;51.094;3.490;2023-02-21T18:15:55;7.70;99.90
56861;DHT22;42744;51.094;3.490;2023-02-21T18:18:22;7.70;99.90
56861;DHT22;42744;51.094;3.490;2023-02-21T18:20:48;7.70;99.90
56861;DHT22;42744;51.094;3.490;2023-02-21T18:23:14;7.70;99.90
56861;DHT22;42744;51.094;3.490;2023-02-21T18:25:40;7.60;99.90
56861;DHT22;42744;51.094;3.490;2023-02-21T18:28:07;7.60;99.90
56861;DHT22;42744;51.094;3.490;2023-02-21T18:30:33;7.50;99.90
56861;DHT22;42744;51.094;3.490;2023-02-21T18:32:59;7.50;99.90
56861;DHT22;42744;51.094;3.490;2023-02-21T18:35:26;7.50;99.90
56861;DHT22;42744;51.094;3.490;2023-02-21T18:37:52;7.50;99.90
56861;DHT22;42744;51.094;3.490;2023-02-21T18:40:18;7.50;99.90
56861;DHT22;42744;51.094;3.490;2023-02-21T18:42:44;7.50;99.90
56861;DHT22;42744;51.094;3.490;2023-02-21T18:45:12;7.50;99.90
56861;DHT22;42744;51.094;3.490;2023-02-21T18:47:38;7.50;99.90
56861;DHT22;42744;51.094;3.490;2023-02-21T18:50:05;7.50;99.90
56861;DHT22;42744;51.094;3.490;2023-02-21T18:52:31;7.50;99.90
56861;DHT22;42744;51.094;3.490;2023-02-21T18:54:58;7.50;99.90
56861;DHT22;42744;51.094;3.490;2023-02-21T18:57:29;7.50;99.90
56861;DHT22;42744;51.094;3.490;2023-02-21T18:59:56;7.50;99.90
56861;DHT22;42744;51.094;3.490;2023-02-21T19:02:22;7.50;99.90
56861;DHT22;42744;51.094;3.490;2023-02-21T19:04:48;7.40;99.90
56861;DHT22;42744;51.094;3.490;2023-02-21T19:07:14;7.40;99.90
56861;DHT22;42744;51.094;3.490;2023-02-21T19:09:45;7.40;99.90
56861;DHT22;42744;51.094;3.490;2023-02-21T19:12:11;7.30;99.90
56861;DHT22;42744;51.094;3.490;2023-02-21T19:14:37;7.20;99.90
56861;DHT22;42744;51.094;3.490;2023-02-21T19:17:04;7.20;99.90